createdAt,value
2022-11-20T08:13:06.909Z,38.27
2022-11-20T08:15:35.763Z,25.03
2022-11-20T08:18:30.169Z,36.40
2022-11-20T08:20:54.134Z,24.70
2022-11-20T08:23:22.219Z,30.67
2022-11-20T08:25:52.369Z,24.93
2022-11-20T08:28:22.542Z,30.70
2022-11-20T08:30:51.724Z,27.63
2022-11-20T08:33:20.426Z,24.60
2022-11-20T08:35:48.578Z,23.07
2022-11-20T08:38:16.685Z,28.50
2022-11-20T08:41:06.341Z,24.63
2022-11-20T08:43:35.794Z,23.33
2022-11-20T08:46:03.920Z,24.43
2022-11-20T08:48:32.025Z,24.83
2022-11-20T08:51:01.261Z,23.33
2022-11-20T08:53:29.602Z,21.83
2022-11-20T08:55:59.281Z,22.13
2022-11-20T08:58:28.093Z,22.03
2022-11-20T09:00:57.891Z,21.43
2022-11-20T09:03:32.646Z,20.57
2022-11-20T09:06:02.278Z,20.77
2022-11-20T09:08:31.443Z,20.17
2022-11-20T09:11:00.259Z,21.13
2022-11-20T09:13:30.045Z,19.70
2022-11-20T09:16:01.347Z,17.93
2022-11-20T09:18:31.578Z,17.77
2022-11-20T09:21:00.253Z,17.90
2022-11-20T09:23:29.225Z,16.90
2022-11-20T09:26:00.605Z,15.27
2022-11-20T09:28:28.803Z,12.57
2022-11-20T09:30:56.964Z,12.97
2022-11-20T09:33:26.450Z,12.30
2022-11-20T09:35:54.735Z,10.77
2022-11-20T09:38:23.123Z,9.90
2022-11-20T09:40:58.931Z,8.73
2022-11-20T09:43:42.494Z,8.07
2022-11-20T09:46:17.169Z,5.97
2022-11-20T09:48:58.172Z,6.23
2022-11-20T09:51:38.219Z,6.00
2022-11-20T09:54:18.283Z,5.60
2022-11-20T09:56:49.858Z,5.13
2022-11-20T09:59:30.825Z,5.07
2022-11-20T10:02:00.963Z,4.43
2022-11-20T10:04:36.784Z,4.93
2022-11-20T10:07:32.519Z,4.13
2022-11-20T10:10:02.213Z,4.60
2022-11-20T10:12:41.166Z,4.20
2022-11-20T10:15:21.875Z,4.80
2022-11-20T10:18:02.207Z,3.87
2022-11-20T10:20:42.531Z,4.10
2022-11-20T10:23:27.793Z,4.27
2022-11-20T10:26:03.279Z,4.17
2022-11-20T10:28:59.250Z,4.00
2022-11-20T10:31:34.739Z,3.93
2022-11-20T10:34:13.166Z,5.53
2022-11-20T10:36:49.104Z,4.50
2022-11-20T10:39:24.858Z,5.07
2022-11-20T10:41:54.751Z,4.23
2022-11-20T10:44:38.430Z,4.67
2022-11-20T10:47:07.392Z,5.17
2022-11-20T10:49:36.743Z,4.13
2022-11-20T10:52:13.305Z,4.37
2022-11-20T10:54:47.009Z,4.63
2022-11-20T10:57:26.332Z,5.20
2022-11-20T11:00:03.224Z,6.60
2022-11-20T11:02:40.496Z,9.37
2022-11-20T11:05:27.453Z,8.93
2022-11-20T11:07:59.258Z,10.83
2022-11-20T11:10:36.594Z,5.97
2022-11-20T11:13:04.926Z,6.63
2022-11-20T11:15:40.186Z,6.53
2022-11-20T11:18:11.569Z,5.90
2022-11-20T11:20:40.153Z,5.60
2022-11-20T11:23:30.836Z,5.47
2022-11-20T11:26:00.126Z,5.80
2022-11-20T11:28:28.988Z,5.70
2022-11-20T11:30:58.213Z,5.83
2022-11-20T11:33:28.328Z,15.77
2022-11-20T11:35:59.307Z,20.03
2022-11-20T11:38:35.322Z,17.37
2022-11-20T11:41:05.146Z,20.27
2022-11-20T11:43:54.233Z,6.27
2022-11-20T11:46:34.650Z,6.47
2022-11-20T11:49:14.820Z,7.20
2022-11-20T11:52:04.133Z,6.93
2022-11-20T11:54:40.581Z,8.03
2022-11-20T11:57:18.061Z,9.03
2022-11-20T11:59:56.190Z,9.60
2022-11-20T12:02:37.261Z,6.87
2022-11-20T12:05:16.244Z,8.47
2022-11-20T12:07:47.898Z,6.03
2022-11-20T12:10:43.008Z,5.93
2022-11-20T12:13:32.982Z,6.77
2022-11-20T12:16:01.507Z,5.93
2022-11-20T12:18:30.645Z,5.20
2022-11-20T12:21:11.681Z,5.07
2022-11-20T12:23:50.441Z,4.60
2022-11-20T12:26:30.208Z,4.63
2022-11-20T12:29:09.708Z,4.23
2022-11-20T12:32:01.497Z,4.20
2022-11-20T12:34:46.395Z,4.57
2022-11-20T12:44:31.165Z,5.00
2022-11-20T12:47:15.257Z,4.00
2022-11-20T12:49:55.077Z,4.50
2022-11-20T12:52:41.425Z,4.70
2022-11-20T12:55:25.896Z,4.37
2022-11-20T13:06:52.460Z,3.87
2022-11-20T13:09:23.573Z,3.80
2022-11-20T13:11:59.771Z,3.93
2022-11-20T13:14:38.548Z,4.30
2022-11-20T13:21:52.980Z,3.30
2022-11-20T13:24:27.469Z,3.20
2022-11-20T13:27:07.192Z,3.47
2022-11-20T13:29:36.790Z,3.47
2022-11-20T13:32:08.424Z,3.00
2022-11-20T13:34:37.793Z,2.77
2022-11-20T13:37:07.646Z,2.03
2022-11-20T13:39:37.332Z,2.23
2022-11-20T13:42:25.550Z,2.30
2022-11-20T13:44:57.361Z,2.47
2022-11-20T13:47:27.738Z,1.93
2022-11-20T13:49:57.912Z,2.20
2022-11-20T13:52:41.863Z,2.33
2022-11-20T13:55:24.069Z,2.90
2022-11-20T13:58:17.483Z,2.50
2022-11-20T14:01:00.361Z,2.27
2022-11-20T14:03:59.018Z,2.40
2022-11-20T14:06:28.512Z,2.53
2022-11-20T14:08:58.653Z,2.30
2022-11-20T14:11:28.534Z,2.30
2022-11-20T14:14:02.821Z,2.20
2022-11-20T14:16:32.999Z,3.10
2022-11-20T14:19:26.565Z,2.23
2022-11-20T14:21:56.113Z,2.60
2022-11-20T14:24:27.028Z,2.50
2022-11-20T14:26:55.991Z,2.40
2022-11-20T14:29:29.071Z,2.53
2022-11-20T14:31:58.694Z,2.57
2022-11-20T14:34:29.843Z,2.40
2022-11-20T14:37:01.246Z,2.70
2022-11-20T14:39:34.463Z,3.10
2022-11-20T14:42:02.913Z,2.30
2022-11-20T14:44:34.782Z,2.80
2022-11-20T14:47:05.822Z,2.37
2022-11-20T14:49:34.326Z,3.40
2022-11-20T14:52:03.804Z,3.77
2022-11-20T14:54:34.382Z,3.00
2022-11-20T14:57:04.441Z,3.40
2022-11-20T14:59:34.191Z,2.97
2022-11-20T15:02:06.212Z,3.50
2022-11-20T15:04:34.515Z,3.47
2022-11-20T15:07:03.473Z,3.67
2022-11-20T15:09:33.591Z,3.10
2022-11-20T15:12:04.855Z,4.43
2022-11-20T15:14:34.959Z,3.17
2022-11-20T15:17:03.010Z,3.60
2022-11-20T15:19:31.188Z,3.90
2022-11-20T15:21:59.326Z,3.60
2022-11-20T15:24:27.628Z,3.13
